createdAt,value
2018-11-23T00:01:27.133Z,39.10
2018-11-23T00:03:31.412Z,42.77
2018-11-23T00:05:35.749Z,43.30
2018-11-23T00:07:40.520Z,43.60
2018-11-23T00:09:44.869Z,43.00
2018-11-23T00:11:50.290Z,35.00
2018-11-23T00:13:54.481Z,41.73
2018-11-23T00:15:58.935Z,39.47
2018-11-23T00:18:03.350Z,40.87
2018-11-23T00:20:09.436Z,42.27
2018-11-23T00:22:13.786Z,44.47
2018-11-23T00:24:18.112Z,37.83
2018-11-23T00:26:22.329Z,40.70
2018-11-23T00:28:26.882Z,37.23
2018-11-23T00:30:31.536Z,39.33
2018-11-23T00:32:35.915Z,38.90
2018-11-23T00:34:40.100Z,36.67
2018-11-23T00:36:44.395Z,39.57
2018-11-23T00:38:48.781Z,39.60
2018-11-23T00:40:53.486Z,33.73
2018-11-23T00:42:57.938Z,37.20
2018-11-23T00:45:02.366Z,39.20
2018-11-23T00:47:06.698Z,40.10
2018-11-23T00:49:11.522Z,42.30
2018-11-23T00:51:18.034Z,42.80
2018-11-23T00:53:22.301Z,46.77
2018-11-23T00:55:27.273Z,38.73
2018-11-23T00:57:31.562Z,37.93
2018-11-23T00:59:36.092Z,39.70
2018-11-23T01:01:45.694Z,37.60
2018-11-23T01:03:50.031Z,44.00
2018-11-23T01:05:54.402Z,38.63
2018-11-23T01:07:58.826Z,40.00
2018-11-23T01:10:03.287Z,38.97
2018-11-23T01:12:07.579Z,38.67
2018-11-23T01:14:11.999Z,37.30
2018-11-23T01:16:16.378Z,37.57
2018-11-23T01:18:20.692Z,38.60
2018-11-23T01:20:25.953Z,35.17
2018-11-23T01:22:30.233Z,45.10
2018-11-23T01:24:34.588Z,39.00
2018-11-23T01:26:39.032Z,39.23
2018-11-23T01:28:43.484Z,38.90
2018-11-23T01:30:47.850Z,36.50
2018-11-23T01:32:52.293Z,43.60
2018-11-23T01:34:56.608Z,39.67
2018-11-23T01:37:01.029Z,41.40
2018-11-23T01:39:08.142Z,40.57
2018-11-23T01:41:12.529Z,42.80
2018-11-23T01:43:16.865Z,38.17
2018-11-23T01:45:21.152Z,44.73
2018-11-23T01:47:25.549Z,39.93
2018-11-23T01:49:29.876Z,47.50
2018-11-23T01:51:34.311Z,40.50
2018-11-23T01:53:38.622Z,45.20
2018-11-23T01:55:42.843Z,44.60
2018-11-23T01:57:47.385Z,38.13
2018-11-23T01:59:51.862Z,40.80
2018-11-23T02:01:56.067Z,38.90
2018-11-23T02:04:00.401Z,37.27
2018-11-23T02:06:04.834Z,44.90
2018-11-23T02:08:09.230Z,38.50
2018-11-23T02:10:15.212Z,37.93
2018-11-23T02:12:19.704Z,42.00
2018-11-23T02:14:24.097Z,39.50
2018-11-23T02:16:28.337Z,45.53
2018-11-23T02:18:32.650Z,41.20
2018-11-23T02:20:37.047Z,42.63
2018-11-23T02:22:41.352Z,41.83
2018-11-23T02:24:45.775Z,45.87
2018-11-23T02:26:50.125Z,41.73
2018-11-23T02:28:54.437Z,40.20
2018-11-23T02:31:02.896Z,45.23
2018-11-23T02:33:12.456Z,38.93
2018-11-23T02:35:17.057Z,40.80
2018-11-23T02:37:21.213Z,40.93
2018-11-23T02:39:25.393Z,41.00
2018-11-23T02:41:29.824Z,45.87
2018-11-23T02:43:34.376Z,40.50
2018-11-23T02:45:38.737Z,42.37
2018-11-23T02:47:43.599Z,42.20
2018-11-23T02:49:47.855Z,42.03
2018-11-23T02:51:52.330Z,42.27
2018-11-23T02:53:56.742Z,41.90
2018-11-23T02:56:01.079Z,45.57
2018-11-23T02:58:05.400Z,42.03
2018-11-23T03:00:11.738Z,44.87
2018-11-23T03:02:15.953Z,42.20
2018-11-23T03:04:20.254Z,41.03
2018-11-23T03:06:25.619Z,39.37
2018-11-23T03:08:29.902Z,41.37
2018-11-23T03:10:34.330Z,42.17
2018-11-23T03:12:38.869Z,46.60
2018-11-23T03:14:43.141Z,45.30
2018-11-23T03:16:47.471Z,48.83
2018-11-23T03:18:52.250Z,41.53
2018-11-23T03:20:57.567Z,38.53
2018-11-23T03:23:01.926Z,44.27
2018-11-23T03:25:07.094Z,43.53
2018-11-23T03:27:11.316Z,47.77
2018-11-23T03:29:15.825Z,46.30
2018-11-23T03:31:20.021Z,41.47
2018-11-23T03:33:24.471Z,40.53
2018-11-23T03:35:28.681Z,45.30
2018-11-23T03:37:32.966Z,53.67
2018-11-23T03:39:37.412Z,47.43
2018-11-23T03:41:41.720Z,49.00
2018-11-23T03:43:46.015Z,44.20
2018-11-23T03:45:50.405Z,47.70
2018-11-23T03:47:54.686Z,45.40
2018-11-23T03:49:58.976Z,46.93
2018-11-23T03:52:03.097Z,45.53
2018-11-23T03:54:07.359Z,49.70
2018-11-23T03:56:11.940Z,51.10
2018-11-23T03:58:16.303Z,46.40
2018-11-23T04:00:21.614Z,44.07
2018-11-23T04:02:26.488Z,48.17
2018-11-23T04:04:30.805Z,45.60
2018-11-23T04:06:35.428Z,43.23
2018-11-23T04:08:39.857Z,46.67
2018-11-23T04:10:44.401Z,47.73
2018-11-23T04:12:48.694Z,50.13
2018-11-23T04:14:53.008Z,44.00
2018-11-23T04:16:57.518Z,45.27
2018-11-23T04:19:02.059Z,45.23
2018-11-23T04:21:06.885Z,47.37
2018-11-23T04:23:11.284Z,50.60
2018-11-23T04:25:15.765Z,51.83
2018-11-23T04:27:20.116Z,49.53
2018-11-23T04:29:24.626Z,47.80
2018-11-23T04:31:29.327Z,48.97
2018-11-23T04:33:33.580Z,47.20
2018-11-23T04:35:37.904Z,49.17
2018-11-23T04:37:42.519Z,48.10
2018-11-23T04:39:47.119Z,45.00
2018-11-23T04:41:51.472Z,52.00
2018-11-23T04:43:55.756Z,46.13
2018-11-23T04:45:59.967Z,56.30
2018-11-23T04:48:04.312Z,48.73
2018-11-23T04:50:10.284Z,50.57
2018-11-23T04:52:14.555Z,43.93
2018-11-23T04:54:18.982Z,39.10
2018-11-23T04:56:23.160Z,48.50
2018-11-23T04:58:27.392Z,43.00
2018-11-23T05:00:31.918Z,45.77
2018-11-23T05:02:36.315Z,49.20
2018-11-23T05:04:40.928Z,38.80
2018-11-23T05:06:45.465Z,45.70
2018-11-23T05:08:49.775Z,42.53
2018-11-23T05:10:54.167Z,46.20
2018-11-23T05:12:58.541Z,44.83
2018-11-23T05:15:02.867Z,48.30
2018-11-23T05:17:07.322Z,45.97
2018-11-23T05:19:12.239Z,43.97
2018-11-23T05:21:22.844Z,43.53
2018-11-23T05:23:27.679Z,49.40
2018-11-23T05:25:32.214Z,48.30
2018-11-23T05:27:36.623Z,47.30
2018-11-23T05:29:41.137Z,44.83
2018-11-23T05:31:45.542Z,41.47
2018-11-23T05:33:49.822Z,44.50
2018-11-23T05:35:54.084Z,45.00
2018-11-23T05:37:58.385Z,46.43
2018-11-23T05:40:03.399Z,43.83
2018-11-23T05:42:07.834Z,42.53
2018-11-23T05:44:13.028Z,48.03
2018-11-23T05:46:18.622Z,44.03
2018-11-23T05:48:26.834Z,52.17
2018-11-23T05:50:27.345Z,43.00
2018-11-23T05:52:31.801Z,44.47
2018-11-23T05:54:36.279Z,45.27
2018-11-23T05:56:40.699Z,46.77
2018-11-23T05:58:45.128Z,43.37
2018-11-23T06:00:49.526Z,43.53
2018-11-23T06:02:53.845Z,49.73
2018-11-23T06:04:58.060Z,51.53
2018-11-23T06:07:02.269Z,44.60
2018-11-23T06:09:07.627Z,53.97
2018-11-23T06:11:11.954Z,42.83
2018-11-23T06:13:16.454Z,47.97
2018-11-23T06:15:22.246Z,47.80
2018-11-23T06:17:26.853Z,52.37
2018-11-23T06:19:31.151Z,47.70
2018-11-23T06:21:35.325Z,48.60
2018-11-23T06:23:39.803Z,57.90
2018-11-23T06:25:46.782Z,48.40
2018-11-23T06:27:51.136Z,55.70
2018-11-23T06:29:55.465Z,47.90
2018-11-23T06:31:59.686Z,49.87
2018-11-23T06:34:04.177Z,48.83
2018-11-23T06:36:08.478Z,51.43
2018-11-23T06:38:12.875Z,49.20
2018-11-23T06:40:22.116Z,46.97
2018-11-23T06:42:26.489Z,47.87
2018-11-23T06:44:31.605Z,51.93
2018-11-23T06:46:36.015Z,47.63
2018-11-23T06:48:40.203Z,51.93
2018-11-23T06:50:44.579Z,51.13
2018-11-23T06:52:48.847Z,45.60
2018-11-23T06:54:53.209Z,48.10
2018-11-23T06:56:57.583Z,49.37
2018-11-23T06:59:01.918Z,50.03
2018-11-23T07:01:06.465Z,44.67
2018-11-23T07:03:10.945Z,51.33
2018-11-23T07:05:15.272Z,44.10
2018-11-23T07:07:19.569Z,46.30
2018-11-23T07:09:24.082Z,46.43
2018-11-23T07:11:28.398Z,44.70
2018-11-23T07:13:34.079Z,49.33
2018-11-23T07:15:38.751Z,44.43
2018-11-23T07:17:43.198Z,46.30
2018-11-23T07:19:47.446Z,45.30
2018-11-23T07:21:51.714Z,45.83
2018-11-23T07:23:56.247Z,50.60
2018-11-23T07:26:00.643Z,51.03
2018-11-23T07:28:04.976Z,45.60
2018-11-23T07:30:16.243Z,43.53
2018-11-23T07:32:20.555Z,51.47
2018-11-23T07:34:24.760Z,42.00
2018-11-23T07:36:29.232Z,49.80
2018-11-23T07:38:33.599Z,47.53
2018-11-23T07:40:49.976Z,45.60
2018-11-23T07:42:54.799Z,45.53
2018-11-23T07:44:59.141Z,42.63
2018-11-23T07:47:03.469Z,45.87
2018-11-23T07:49:07.990Z,48.23
2018-11-23T07:51:12.239Z,44.33
2018-11-23T07:53:16.745Z,50.33
2018-11-23T07:55:20.999Z,46.30
2018-11-23T07:57:25.433Z,43.77
2018-11-23T07:59:29.792Z,47.90
2018-11-23T08:01:34.301Z,49.77
2018-11-23T08:03:38.483Z,43.53
2018-11-23T08:05:42.827Z,41.60
2018-11-23T08:07:47.237Z,40.27
2018-11-23T08:09:51.786Z,37.73
2018-11-23T08:11:56.211Z,36.57
2018-11-23T08:14:00.763Z,44.60
2018-11-23T08:16:05.067Z,41.93
2018-11-23T08:18:09.522Z,40.93
2018-11-23T08:20:15.175Z,37.27
2018-11-23T08:22:19.462Z,40.87
2018-11-23T08:24:23.682Z,37.80
2018-11-23T08:26:28.030Z,43.60
2018-11-23T08:28:32.439Z,41.17
2018-11-23T08:30:36.838Z,41.83
2018-11-23T08:32:42.001Z,44.33
2018-11-23T08:34:46.494Z,39.30
2018-11-23T08:36:50.921Z,39.60
2018-11-23T08:38:55.438Z,39.00
2018-11-23T08:41:00.287Z,39.03
2018-11-23T08:43:04.706Z,39.83
2018-11-23T08:45:11.831Z,40.40
2018-11-23T08:47:16.184Z,36.67
2018-11-23T08:49:20.450Z,38.83
2018-11-23T08:51:24.807Z,34.83
2018-11-23T08:53:33.625Z,38.87
2018-11-23T08:55:37.944Z,36.23
2018-11-23T08:57:42.606Z,43.13
2018-11-23T08:59:47.114Z,39.53
2018-11-23T09:01:51.495Z,39.67
2018-11-23T09:03:55.926Z,43.67
2018-11-23T09:06:00.116Z,44.13
2018-11-23T09:08:04.436Z,45.30
2018-11-23T09:10:11.112Z,39.57
2018-11-23T09:12:15.524Z,43.00
2018-11-23T09:14:19.945Z,40.40
2018-11-23T09:16:24.353Z,41.70
2018-11-23T09:18:28.530Z,46.13
2018-11-23T09:20:32.898Z,41.03
2018-11-23T09:22:37.203Z,37.97
2018-11-23T09:24:41.509Z,42.07
2018-11-23T09:26:45.922Z,38.90
2018-11-23T09:28:50.209Z,41.23
2018-11-23T09:30:54.683Z,43.47
2018-11-23T09:32:58.920Z,41.03
2018-11-23T09:35:03.290Z,37.37
2018-11-23T09:37:07.706Z,40.20
2018-11-23T09:39:12.036Z,41.20
2018-11-23T09:41:16.212Z,41.80
2018-11-23T09:43:20.580Z,47.70
2018-11-23T09:45:26.188Z,41.57
2018-11-23T09:47:30.620Z,37.30
2018-11-23T09:49:34.920Z,41.03
2018-11-23T09:51:39.288Z,41.50
2018-11-23T09:53:43.531Z,43.97
2018-11-23T09:55:47.647Z,42.70
2018-11-23T09:57:52.054Z,37.77
2018-11-23T09:59:56.318Z,43.00
2018-11-23T10:02:00.725Z,37.20
2018-11-23T10:04:05.139Z,47.07
2018-11-23T10:06:09.460Z,52.60
2018-11-23T10:08:13.622Z,45.33
2018-11-23T10:10:18.763Z,43.97
2018-11-23T10:12:23.194Z,41.10
2018-11-23T10:14:27.423Z,43.47
2018-11-23T10:16:31.762Z,40.70
2018-11-23T10:18:36.055Z,51.93
2018-11-23T10:20:40.247Z,51.17
2018-11-23T10:22:44.813Z,65.77
2018-11-23T10:24:49.076Z,49.90
2018-11-23T10:26:53.559Z,46.10
2018-11-23T10:28:58.033Z,42.23
2018-11-23T10:31:02.337Z,40.57
2018-11-23T10:33:07.466Z,41.97
2018-11-23T10:35:12.170Z,43.10
2018-11-23T10:37:17.753Z,39.77
2018-11-23T10:39:22.026Z,43.23
2018-11-23T10:41:26.371Z,40.63
2018-11-23T10:43:30.675Z,42.67
2018-11-23T10:45:35.418Z,38.30
2018-11-23T10:47:39.853Z,43.07
2018-11-23T10:49:44.344Z,43.37
2018-11-23T10:51:48.773Z,42.47
2018-11-23T10:53:53.108Z,39.93
2018-11-23T10:55:57.380Z,39.03
2018-11-23T10:58:01.796Z,37.23
2018-11-23T11:00:07.587Z,38.87
2018-11-23T11:02:17.064Z,40.17
2018-11-23T11:04:26.341Z,37.20
2018-11-23T11:06:35.622Z,40.30
2018-11-23T11:08:40.322Z,38.43
2018-11-23T11:10:44.384Z,40.70
2018-11-23T11:12:48.797Z,37.63
2018-11-23T11:14:53.091Z,38.27
2018-11-23T11:16:57.455Z,39.77
2018-11-23T11:19:01.870Z,37.90
2018-11-23T11:21:06.416Z,44.83
2018-11-23T11:23:10.800Z,38.33
2018-11-23T11:25:15.135Z,43.57
2018-11-23T11:27:19.420Z,40.47
2018-11-23T11:29:23.723Z,39.90
2018-11-23T11:31:28.347Z,40.77
2018-11-23T11:33:32.642Z,35.63
2018-11-23T11:35:36.991Z,41.40
2018-11-23T11:37:41.529Z,37.50
2018-11-23T11:39:45.699Z,39.07
2018-11-23T11:41:50.046Z,40.93
2018-11-23T11:43:54.272Z,45.80
2018-11-23T11:45:58.552Z,38.30
2018-11-23T11:48:02.917Z,37.27
2018-11-23T11:50:09.181Z,37.70
2018-11-23T11:52:13.417Z,37.53
2018-11-23T11:54:17.786Z,39.10
2018-11-23T11:56:22.380Z,38.90
2018-11-23T11:58:26.465Z,41.20
2018-11-23T12:00:31.024Z,38.80
2018-11-23T12:02:35.132Z,40.87
2018-11-23T12:04:39.327Z,38.00
2018-11-23T12:06:43.759Z,38.30
2018-11-23T12:08:48.170Z,39.50
2018-11-23T12:10:52.672Z,42.77
2018-11-23T12:12:57.215Z,44.57
2018-11-23T12:15:01.411Z,39.90
2018-11-23T12:17:05.795Z,40.37
2018-11-23T12:19:10.246Z,43.13
2018-11-23T12:21:14.577Z,36.73
2018-11-23T12:23:18.875Z,37.97
2018-11-23T12:25:23.574Z,41.83
2018-11-23T12:27:29.471Z,42.20
2018-11-23T12:29:32.322Z,36.77
2018-11-23T12:31:36.600Z,40.53
2018-11-23T12:33:41.345Z,38.77
2018-11-23T12:35:45.801Z,40.70
2018-11-23T12:37:50.350Z,46.23
2018-11-23T12:39:54.830Z,42.37
2018-11-23T12:41:59.159Z,40.43
2018-11-23T12:44:03.789Z,41.83
2018-11-23T12:46:08.353Z,41.87
2018-11-23T12:48:12.806Z,39.50
2018-11-23T12:50:19.067Z,41.23
2018-11-23T12:52:23.505Z,38.80
2018-11-23T12:54:28.220Z,44.30
2018-11-23T12:56:32.765Z,46.77
2018-11-23T12:58:37.278Z,51.63
2018-11-23T13:00:41.922Z,42.17
2018-11-23T13:02:47.524Z,42.57
2018-11-23T13:04:51.973Z,46.90
2018-11-23T13:06:56.646Z,41.83
2018-11-23T13:09:00.939Z,44.30
2018-11-23T13:11:05.297Z,41.23
2018-11-23T13:13:09.504Z,45.07
2018-11-23T13:15:13.529Z,43.13
2018-11-23T13:17:17.744Z,48.47
2018-11-23T13:19:22.122Z,42.83
2018-11-23T13:21:26.673Z,48.73
2018-11-23T13:23:31.070Z,47.77
2018-11-23T13:25:35.405Z,51.13
2018-11-23T13:27:39.788Z,40.47
2018-11-23T13:29:45.120Z,45.20
2018-11-23T13:31:49.607Z,42.10
2018-11-23T13:33:54.556Z,40.73
2018-11-23T13:35:58.887Z,43.87
2018-11-23T13:38:03.368Z,43.60
2018-11-23T13:40:09.983Z,37.13
2018-11-23T13:42:14.536Z,40.30
2018-11-23T13:44:18.806Z,40.10
2018-11-23T13:46:23.239Z,38.30
2018-11-23T13:48:27.481Z,43.07
2018-11-23T13:50:31.757Z,44.17
2018-11-23T13:52:36.173Z,45.20
2018-11-23T13:54:40.427Z,42.17
2018-11-23T13:56:44.768Z,45.00
2018-11-23T13:58:49.327Z,35.03
2018-11-23T14:00:54.539Z,40.87
2018-11-23T14:02:58.817Z,39.30
2018-11-23T14:05:03.175Z,39.53
2018-11-23T14:07:07.699Z,40.00
2018-11-23T14:09:12.621Z,41.00
2018-11-23T14:11:16.970Z,38.53
2018-11-23T14:13:21.451Z,39.37
2018-11-23T14:15:27.003Z,40.30
2018-11-23T14:17:31.356Z,36.63
2018-11-23T14:19:35.777Z,37.40
2018-11-23T14:21:40.097Z,38.20
2018-11-23T14:23:44.354Z,39.17
2018-11-23T14:25:48.980Z,35.43
2018-11-23T14:27:53.770Z,39.17
2018-11-23T14:29:57.983Z,35.67
2018-11-23T14:32:02.290Z,44.07
2018-11-23T14:34:06.796Z,32.97
2018-11-23T14:36:11.095Z,36.43
2018-11-23T14:38:15.386Z,32.17
2018-11-23T14:40:19.855Z,41.57
2018-11-23T14:42:24.131Z,36.67
2018-11-23T14:44:28.388Z,36.70
2018-11-23T14:46:32.755Z,35.00
2018-11-23T14:48:37.088Z,36.47
2018-11-23T14:50:46.983Z,38.00
2018-11-23T14:52:52.336Z,38.63
2018-11-23T14:54:56.600Z,40.50
2018-11-23T14:57:01.007Z,29.53
2018-11-23T14:59:05.412Z,34.00
2018-11-23T15:01:09.633Z,30.33
2018-11-23T15:03:14.031Z,38.13
2018-11-23T15:05:18.753Z,42.07
2018-11-23T15:07:23.056Z,32.23
2018-11-23T15:09:27.303Z,38.00
2018-11-23T15:11:31.544Z,33.63
2018-11-23T15:13:36.015Z,31.17
2018-11-23T15:15:41.746Z,31.23
2018-11-23T15:17:47.212Z,27.40
2018-11-23T15:19:51.601Z,29.60
2018-11-23T15:21:56.176Z,30.40
2018-11-23T15:24:00.984Z,29.20
2018-11-23T15:26:04.956Z,31.83
2018-11-23T15:28:11.200Z,32.10
2018-11-23T15:30:25.706Z,34.47
2018-11-23T15:32:30.099Z,38.30
2018-11-23T15:34:34.414Z,39.10
2018-11-23T15:36:38.757Z,32.57
2018-11-23T15:38:43.024Z,34.47
2018-11-23T15:40:47.751Z,31.80
2018-11-23T15:42:53.501Z,29.27
2018-11-23T15:44:58.176Z,38.37
2018-11-23T15:47:02.837Z,38.37
2018-11-23T15:49:07.218Z,52.43
2018-11-23T15:51:11.729Z,43.43
2018-11-23T15:53:16.778Z,37.77
2018-11-23T15:55:23.277Z,46.07
2018-11-23T15:57:27.595Z,37.60
2018-11-23T15:59:31.960Z,37.87
2018-11-23T16:01:36.280Z,33.00
2018-11-23T16:03:40.578Z,40.37
2018-11-23T16:05:44.800Z,37.37
2018-11-23T16:07:49.819Z,42.70
2018-11-23T16:09:54.094Z,41.80
2018-11-23T16:11:58.448Z,34.60
2018-11-23T16:14:02.826Z,40.63
2018-11-23T16:16:07.185Z,46.33
2018-11-23T16:18:11.883Z,35.60
2018-11-23T16:20:20.333Z,41.87
2018-11-23T16:22:24.847Z,39.00
2018-11-23T16:24:29.044Z,42.23
2018-11-23T16:26:33.353Z,37.97
2018-11-23T16:28:37.823Z,43.17
2018-11-23T16:30:43.504Z,42.97
2018-11-23T16:32:48.939Z,44.07
2018-11-23T16:34:53.278Z,46.47
2018-11-23T16:36:59.221Z,45.30
2018-11-23T16:39:03.918Z,48.80
2018-11-23T16:41:08.380Z,50.20
2018-11-23T16:43:13.523Z,44.87
2018-11-23T16:45:20.546Z,40.03
2018-11-23T16:47:25.022Z,47.43
2018-11-23T16:49:29.475Z,50.97
2018-11-23T16:51:33.732Z,49.80
2018-11-23T16:53:38.069Z,54.00
2018-11-23T16:55:42.444Z,54.67
2018-11-23T16:57:48.696Z,59.00
2018-11-23T16:59:52.924Z,57.73
2018-11-23T17:01:57.288Z,52.87
2018-11-23T17:04:01.886Z,59.80
2018-11-23T17:06:06.363Z,60.13
2018-11-23T17:08:10.919Z,58.07
2018-11-23T17:10:16.108Z,55.10
2018-11-23T17:12:20.716Z,62.43
2018-11-23T17:14:25.008Z,67.50
2018-11-23T17:16:29.490Z,52.90
2018-11-23T17:18:33.835Z,64.43
2018-11-23T17:20:38.676Z,58.63
2018-11-23T17:22:44.077Z,61.70
2018-11-23T17:24:48.614Z,62.50
2018-11-23T17:26:53.099Z,59.63
2018-11-23T17:28:57.639Z,57.77
2018-11-23T17:31:09.196Z,67.27
2018-11-23T17:33:13.528Z,55.53
2018-11-23T17:35:17.964Z,72.43
2018-11-23T17:37:22.991Z,67.42
2018-11-23T17:39:27.517Z,60.90
2018-11-23T17:41:31.895Z,68.13
2018-11-23T17:43:36.069Z,65.83
2018-11-23T17:45:40.483Z,61.37
2018-11-23T17:47:44.813Z,52.07
2018-11-23T17:49:49.074Z,60.50
2018-11-23T17:51:53.464Z,56.63
2018-11-23T17:53:58.028Z,60.30
2018-11-23T17:56:02.464Z,58.33
2018-11-23T17:58:06.839Z,65.57
2018-11-23T18:00:19.097Z,71.90
2018-11-23T18:02:25.592Z,60.10
2018-11-23T18:04:30.025Z,61.13
2018-11-23T18:06:34.568Z,57.03
2018-11-23T18:08:39.142Z,71.47
2018-11-23T18:10:43.285Z,60.97
2018-11-23T18:12:47.815Z,60.77
2018-11-23T18:14:52.025Z,57.43
2018-11-23T18:16:56.221Z,58.67
2018-11-23T18:19:00.692Z,68.77
2018-11-23T18:21:05.204Z,57.97
2018-11-23T18:23:09.693Z,68.47
2018-11-23T18:25:17.969Z,72.53
2018-11-23T18:27:23.407Z,50.27
2018-11-23T18:29:28.131Z,63.80
2018-11-23T18:31:33.105Z,69.30
2018-11-23T18:33:37.284Z,70.93
2018-11-23T18:35:41.771Z,66.80
2018-11-23T18:37:46.227Z,56.27
2018-11-23T18:39:50.679Z,68.90
2018-11-23T18:41:54.968Z,60.13
2018-11-23T18:43:59.387Z,65.20
2018-11-23T18:46:03.976Z,49.90
2018-11-23T18:48:08.433Z,57.07
2018-11-23T18:50:14.254Z,64.20
2018-11-23T18:52:19.686Z,67.90
2018-11-23T18:54:24.480Z,65.73
2018-11-23T18:56:29.172Z,69.17
2018-11-23T18:58:33.694Z,77.57
2018-11-23T19:00:38.816Z,59.93
2018-11-23T19:02:47.639Z,52.17
2018-11-23T19:04:52.376Z,76.63
2018-11-23T19:06:56.874Z,72.00
2018-11-23T19:09:01.606Z,78.67
2018-11-23T19:11:06.321Z,68.47
2018-11-23T19:13:10.980Z,78.07
2018-11-23T19:15:25.175Z,74.17
2018-11-23T19:17:23.896Z,74.70
2018-11-23T19:19:28.475Z,76.93
2018-11-23T19:21:33.143Z,65.03
2018-11-23T19:23:37.896Z,68.13
2018-11-23T19:25:42.482Z,68.90
2018-11-23T19:27:47.100Z,72.90
2018-11-23T19:29:51.761Z,75.90
2018-11-23T19:31:56.258Z,71.90
2018-11-23T19:34:00.954Z,74.83
2018-11-23T19:36:05.497Z,74.20
2018-11-23T19:38:10.038Z,73.10
2018-11-23T19:40:15.282Z,80.83
2018-11-23T19:42:19.693Z,67.20
2018-11-23T19:44:24.089Z,70.27
2018-11-23T19:46:28.598Z,64.00
2018-11-23T19:48:32.930Z,67.07
2018-11-23T19:50:37.820Z,63.97
2018-11-23T19:52:42.211Z,61.00
2018-11-23T19:54:46.503Z,65.13
2018-11-23T19:56:50.947Z,68.97
2018-11-23T19:58:55.301Z,62.00
2018-11-23T20:01:00.152Z,75.93
2018-11-23T20:03:04.657Z,67.10
2018-11-23T20:05:09.176Z,63.20
2018-11-23T20:07:13.576Z,72.30
2018-11-23T20:09:17.810Z,67.70
2018-11-23T20:11:22.113Z,62.30
2018-11-23T20:13:26.746Z,74.03
2018-11-23T20:15:31.375Z,57.23
2018-11-23T20:17:41.216Z,63.80
2018-11-23T20:19:41.218Z,53.93
2018-11-23T20:21:45.840Z,61.47
2018-11-23T20:23:50.606Z,70.77
2018-11-23T20:25:54.999Z,65.30
2018-11-23T20:27:59.605Z,58.10
2018-11-23T20:30:04.037Z,57.60
2018-11-23T20:32:08.645Z,62.57
2018-11-23T20:34:13.222Z,68.00
2018-11-23T20:36:17.437Z,63.40
2018-11-23T20:38:22.114Z,63.60
2018-11-23T20:40:26.484Z,73.03
2018-11-23T20:42:31.346Z,60.30
2018-11-23T20:44:35.922Z,53.73
2018-11-23T20:46:40.597Z,58.13
2018-11-23T20:48:45.203Z,64.80
2018-11-23T20:50:49.621Z,62.87
2018-11-23T20:52:54.347Z,63.03
2018-11-23T20:54:58.860Z,64.00
2018-11-23T20:57:03.381Z,63.00
2018-11-23T20:59:07.819Z,58.83
2018-11-23T21:01:12.109Z,58.07
2018-11-23T21:03:16.400Z,63.60
2018-11-23T21:05:21.675Z,69.10
2018-11-23T21:07:26.201Z,65.80
2018-11-23T21:09:31.114Z,59.20
2018-11-23T21:11:36.545Z,60.10
2018-11-23T21:13:40.846Z,69.17
2018-11-23T21:15:45.290Z,61.47
2018-11-23T21:17:49.714Z,71.03
2018-11-23T21:19:54.210Z,74.33
2018-11-23T21:21:58.753Z,76.10
2018-11-23T21:24:03.080Z,77.43
2018-11-23T21:26:07.479Z,69.77
2018-11-23T21:28:13.130Z,74.67
2018-11-23T21:30:18.572Z,76.07
2018-11-23T21:32:23.067Z,72.00
2018-11-23T21:34:27.383Z,79.07
2018-11-23T21:36:31.814Z,68.90
2018-11-23T21:38:36.027Z,69.80
2018-11-23T21:40:49.750Z,69.37
2018-11-23T21:42:54.090Z,57.00
2018-11-23T21:44:58.482Z,57.30
2018-11-23T21:47:02.913Z,52.57
2018-11-23T21:49:07.460Z,54.97
2018-11-23T21:51:11.640Z,54.43
2018-11-23T21:53:15.982Z,57.07
2018-11-23T21:55:21.547Z,56.60
2018-11-23T21:57:25.935Z,52.40
2018-11-23T21:59:30.131Z,54.97
2018-11-23T22:01:34.591Z,49.93
2018-11-23T22:03:39.101Z,44.40
2018-11-23T22:05:43.634Z,56.90
2018-11-23T22:07:47.946Z,57.83
2018-11-23T22:09:52.327Z,55.93
2018-11-23T22:11:56.793Z,49.57
2018-11-23T22:14:01.365Z,45.00
2018-11-23T22:16:06.297Z,46.63
2018-11-23T22:18:10.713Z,46.17
2018-11-23T22:20:16.081Z,45.40
2018-11-23T22:22:20.432Z,45.23
2018-11-23T22:24:24.918Z,49.10
2018-11-23T22:26:29.319Z,52.27
2018-11-23T22:28:34.265Z,49.83
2018-11-23T22:30:38.451Z,54.40
2018-11-23T22:32:43.229Z,47.93
2018-11-23T22:34:47.630Z,57.33
2018-11-23T22:36:52.048Z,46.13
2018-11-23T22:38:56.419Z,48.17
2018-11-23T22:41:00.961Z,47.80
2018-11-23T22:43:05.483Z,50.53
2018-11-23T22:45:11.654Z,46.57
2018-11-23T22:47:16.242Z,45.47
2018-11-23T22:49:20.580Z,47.07
2018-11-23T22:51:24.990Z,47.63
2018-11-23T22:53:29.248Z,48.10
2018-11-23T22:55:33.760Z,43.30
2018-11-23T22:57:38.247Z,43.57
2018-11-23T22:59:42.653Z,51.73
2018-11-23T23:01:46.931Z,43.80
2018-11-23T23:03:51.288Z,52.57
2018-11-23T23:05:55.789Z,46.93
2018-11-23T23:08:00.122Z,44.90
2018-11-23T23:10:04.847Z,48.70
2018-11-23T23:12:09.146Z,40.60
2018-11-23T23:14:13.335Z,38.47
2018-11-23T23:16:17.647Z,43.37
2018-11-23T23:18:22.294Z,40.73
2018-11-23T23:20:26.714Z,36.70
2018-11-23T23:22:31.061Z,43.17
2018-11-23T23:24:35.548Z,44.60
2018-11-23T23:26:39.741Z,38.27
2018-11-23T23:28:44.181Z,40.30
2018-11-23T23:30:48.372Z,44.83
2018-11-23T23:32:52.708Z,43.33
2018-11-23T23:34:56.891Z,46.17
2018-11-23T23:37:01.042Z,40.50
2018-11-23T23:39:07.605Z,46.63
2018-11-23T23:41:12.012Z,44.83
2018-11-23T23:43:16.310Z,38.43
2018-11-23T23:45:20.741Z,39.93
2018-11-23T23:47:25.018Z,46.07
2018-11-23T23:49:29.375Z,42.63
2018-11-23T23:51:33.554Z,40.67
2018-11-23T23:53:37.989Z,43.23
2018-11-23T23:55:42.318Z,39.10
2018-11-23T23:57:47.085Z,44.40
2018-11-23T23:59:51.428Z,44.63
